sensor_id;sensor_type;location;lat;lon;timestamp;pressure;altitude;pressure_sealevel;temperature;humidity
13476;BME280;6810;63.824;20.288;2023-04-15T00:00:55;103213.59;;;1.21;50.18
13476;BME280;6810;63.824;20.288;2023-04-15T00:03:23;103214.38;;;1.15;50.43
13476;BME280;6810;63.824;20.288;2023-04-15T00:05:50;103225.78;;;1.16;49.89
13476;BME280;6810;63.824;20.288;2023-04-15T00:08:18;103222.22;;;1.14;50.32
13476;BME280;6810;63.824;20.288;2023-04-15T00:10:45;103209.78;;;1.04;50.99
13476;BME280;6810;63.824;20.288;2023-04-15T00:13:12;103216.88;;;1.09;50.49
13476;BME280;6810;63.824;20.288;2023-04-15T00:15:39;103218.56;;;1.07;50.53
13476;BME280;6810;63.824;20.288;2023-04-15T00:18:07;103214.97;;;1.01;50.79
13476;BME280;6810;63.824;20.288;2023-04-15T00:20:34;103213.16;;;1.00;50.38
13476;BME280;6810;63.824;20.288;2023-04-15T00:23:02;103221.03;;;1.00;50.46
13476;BME280;6810;63.824;20.288;2023-04-15T00:25:30;103220.16;;;0.98;50.64
13476;BME280;6810;63.824;20.288;2023-04-15T00:27:57;103204.31;;;0.95;50.55
13476;BME280;6810;63.824;20.288;2023-04-15T00:30:24;103180.34;;;0.80;50.96
13476;BME280;6810;63.824;20.288;2023-04-15T00:32:52;103171.38;;;0.67;50.61
13476;BME280;6810;63.824;20.288;2023-04-15T00:35:21;103134.94;;;0.42;50.64
13476;BME280;6810;63.824;20.288;2023-04-15T00:37:49;103215.50;;;0.86;50.67
13476;BME280;6810;63.824;20.288;2023-04-15T00:40:17;103212.81;;;0.83;50.81
13476;BME280;6810;63.824;20.288;2023-04-15T00:42:46;103141.06;;;0.41;50.90
13476;BME280;6810;63.824;20.288;2023-04-15T00:45:13;103203.03;;;0.75;50.59
13476;BME280;6810;63.824;20.288;2023-04-15T00:47:42;103212.59;;;0.73;50.61
13476;BME280;6810;63.824;20.288;2023-04-15T00:50:10;103167.34;;;0.44;50.45
13476;BME280;6810;63.824;20.288;2023-04-15T00:52:39;103216.94;;;0.72;50.94
13476;BME280;6810;63.824;20.288;2023-04-15T00:55:07;103219.50;;;0.69;51.02
13476;BME280;6810;63.824;20.288;2023-04-15T00:57:34;103228.19;;;0.67;50.74
13476;BME280;6810;63.824;20.288;2023-04-15T01:00:02;103151.13;;;0.23;50.74
13476;BME280;6810;63.824;20.288;2023-04-15T01:02:33;103226.34;;;0.63;51.12
13476;BME280;6810;63.824;20.288;2023-04-15T01:05:01;103213.88;;;0.53;51.29
13476;BME280;6810;63.824;20.288;2023-04-15T01:07:30;103227.09;;;0.57;50.92
13476;BME280;6810;63.824;20.288;2023-04-15T01:09:57;103230.56;;;0.55;51.24
13476;BME280;6810;63.824;20.288;2023-04-15T01:12:25;103218.09;;;0.46;50.94
13476;BME280;6810;63.824;20.288;2023-04-15T01:14:54;103187.94;;;0.28;51.33
13476;BME280;6810;63.824;20.288;2023-04-15T01:17:23;103221.53;;;0.44;51.54
13476;BME280;6810;63.824;20.288;2023-04-15T01:19:50;103229.47;;;0.47;51.02
13476;BME280;6810;63.824;20.288;2023-04-15T01:22:18;103222.34;;;0.40;51.12
13476;BME280;6810;63.824;20.288;2023-04-15T01:25:00;103230.22;;;0.40;51.21
13476;BME280;6810;63.824;20.288;2023-04-15T01:27:30;103207.16;;;0.27;51.11
13476;BME280;6810;63.824;20.288;2023-04-15T01:29:58;103227.50;;;0.37;51.67
13476;BME280;6810;63.824;20.288;2023-04-15T01:32:25;103206.03;;;0.17;51.78
13476;BME280;6810;63.824;20.288;2023-04-15T01:35:11;103232.50;;;0.28;51.55
13476;BME280;6810;63.824;20.288;2023-04-15T01:37:46;103132.38;;;-0.31;51.35
13476;BME280;6810;63.824;20.288;2023-04-15T01:40:15;103242.19;;;0.29;51.66
13476;BME280;6810;63.824;20.288;2023-04-15T01:42:42;103237.56;;;0.20;51.58
13476;BME280;6810;63.824;20.288;2023-04-15T01:45:10;103249.94;;;0.24;51.34
13476;BME280;6810;63.824;20.288;2023-04-15T01:47:37;103229.50;;;0.11;50.97
13476;BME280;6810;63.824;20.288;2023-04-15T01:50:04;103221.41;;;0.02;51.45
13476;BME280;6810;63.824;20.288;2023-04-15T01:52:32;103246.25;;;0.18;51.15
13476;BME280;6810;63.824;20.288;2023-04-15T01:54:59;103251.47;;;0.16;51.58
13476;BME280;6810;63.824;20.288;2023-04-15T01:57:27;103244.44;;;0.14;51.39
13476;BME280;6810;63.824;20.288;2023-04-15T01:59:53;103242.53;;;0.08;51.56
13476;BME280;6810;63.824;20.288;2023-04-15T02:02:21;103227.44;;;-0.02;51.39
13476;BME280;6810;63.824;20.288;2023-04-15T02:04:48;103182.19;;;-0.29;51.83
13476;BME280;6810;63.824;20.288;2023-04-15T02:07:16;103195.53;;;-0.20;51.52
13476;BME280;6810;63.824;20.288;2023-04-15T02:09:43;103241.53;;;0.03;51.39
13476;BME280;6810;63.824;20.288;2023-04-15T02:12:12;103206.13;;;-0.16;51.63
13476;BME280;6810;63.824;20.288;2023-04-15T02:14:39;103240.56;;;-0.01;51.18
13476;BME280;6810;63.824;20.288;2023-04-15T02:17:07;103237.00;;;-0.03;51.67
13476;BME280;6810;63.824;20.288;2023-04-15T02:19:34;103236.03;;;-0.06;51.42
13476;BME280;6810;63.824;20.288;2023-04-15T02:22:02;103210.34;;;-0.21;51.71
13476;BME280;6810;63.824;20.288;2023-04-15T02:24:29;103231.59;;;-0.10;51.24
13476;BME280;6810;63.824;20.288;2023-04-15T02:26:57;103235.06;;;-0.11;51.27
13476;BME280;6810;63.824;20.288;2023-04-15T02:29:24;103199.44;;;-0.37;51.67
13476;BME280;6810;63.824;20.288;2023-04-15T02:31:51;103235.81;;;-0.15;51.29
13476;BME280;6810;63.824;20.288;2023-04-15T02:34:19;103243.63;;;-0.17;51.22
13476;BME280;6810;63.824;20.288;2023-04-15T02:36:46;103207.34;;;-0.36;51.19
13476;BME280;6810;63.824;20.288;2023-04-15T02:39:15;103234.72;;;-0.25;51.28
13476;BME280;6810;63.824;20.288;2023-04-15T02:41:44;103237.38;;;-0.23;51.75
13476;BME280;6810;63.824;20.288;2023-04-15T02:44:14;103236.44;;;-0.25;51.75
13476;BME280;6810;63.824;20.288;2023-04-15T02:46:42;103225.78;;;-0.31;51.84
13476;BME280;6810;63.824;20.288;2023-04-15T02:49:09;103204.47;;;-0.45;51.29
13476;BME280;6810;63.824;20.288;2023-04-15T02:51:36;103195.53;;;-0.53;51.73
13476;BME280;6810;63.824;20.288;2023-04-15T02:54:04;103177.78;;;-0.64;51.80
13476;BME280;6810;63.824;20.288;2023-04-15T02:56:32;103178.34;;;-0.74;51.51
13476;BME280;6810;63.824;20.288;2023-04-15T02:58:59;103238.66;;;-0.40;52.06
13476;BME280;6810;63.824;20.288;2023-04-15T03:01:26;103200.47;;;-0.63;51.93
13476;BME280;6810;63.824;20.288;2023-04-15T03:03:53;103228.75;;;-0.50;52.03
13476;BME280;6810;63.824;20.288;2023-04-15T03:06:21;103248.94;;;-0.48;52.11
13476;BME280;6810;63.824;20.288;2023-04-15T03:08:49;103250.59;;;-0.50;51.76
13476;BME280;6810;63.824;20.288;2023-04-15T03:11:18;103165.38;;;-1.01;51.49
13476;BME280;6810;63.824;20.288;2023-04-15T03:13:45;103157.28;;;-1.10;51.39
13476;BME280;6810;63.824;20.288;2023-04-15T03:16:23;103252.97;;;-0.59;51.29
13476;BME280;6810;63.824;20.288;2023-04-15T03:18:51;103259.06;;;-0.60;52.10
13476;BME280;6810;63.824;20.288;2023-04-15T03:21:20;103262.47;;;-0.62;52.36
13476;BME280;6810;63.824;20.288;2023-04-15T03:23:48;103265.00;;;-0.65;51.84
13476;BME280;6810;63.824;20.288;2023-04-15T03:26:28;103265.78;;;-0.69;51.52
13476;BME280;6810;63.824;20.288;2023-04-15T03:28:59;103268.41;;;-0.69;51.52
13476;BME280;6810;63.824;20.288;2023-04-15T03:31:27;103176.13;;;-1.21;52.63
13476;BME280;6810;63.824;20.288;2023-04-15T03:33:54;103272.66;;;-0.73;52.05
13476;BME280;6810;63.824;20.288;2023-04-15T03:36:22;103252.25;;;-0.84;51.61
13476;BME280;6810;63.824;20.288;2023-04-15T03:38:49;103271.63;;;-0.78;52.65
13476;BME280;6810;63.824;20.288;2023-04-15T03:41:16;103264.41;;;-0.86;52.45
13476;BME280;6810;63.824;20.288;2023-04-15T03:43:43;103254.59;;;-0.93;52.02
13476;BME280;6810;63.824;20.288;2023-04-15T03:46:10;103281.09;;;-0.83;52.14
13476;BME280;6810;63.824;20.288;2023-04-15T03:48:37;103276.69;;;-0.84;52.17
13476;BME280;6810;63.824;20.288;2023-04-15T03:51:04;103274.75;;;-0.91;52.76
13476;BME280;6810;63.824;20.288;2023-04-15T03:53:32;103285.31;;;-0.88;52.48
13476;BME280;6810;63.824;20.288;2023-04-15T03:55:59;103290.53;;;-0.88;52.42
13476;BME280;6810;63.824;20.288;2023-04-15T03:58:26;103235.53;;;-1.17;52.98
13476;BME280;6810;63.824;20.288;2023-04-15T04:01:33;103296.56;;;-0.90;51.79
13476;BME280;6810;63.824;20.288;2023-04-15T04:04:40;103289.50;;;-0.93;52.88
13476;BME280;6810;63.824;20.288;2023-04-15T04:07:47;103299.94;;;-0.94;52.47
13476;BME280;6810;63.824;20.288;2023-04-15T04:10:54;103288.59;;;-0.95;52.34
13476;BME280;6810;63.824;20.288;2023-04-15T04:14:01;103299.00;;;-0.96;52.83
13476;BME280;6810;63.824;20.288;2023-04-15T04:17:08;103309.41;;;-0.98;51.89
13476;BME280;6810;63.824;20.288;2023-04-15T04:20:15;103274.75;;;-1.19;51.98
13476;BME280;6810;63.824;20.288;2023-04-15T04:23:22;103303.22;;;-1.01;52.29
13476;BME280;6810;63.824;20.288;2023-04-15T04:26:29;103280.91;;;-1.17;52.20
13476;BME280;6810;63.824;20.288;2023-04-15T04:29:36;103291.56;;;-1.11;52.07
13476;BME280;6810;63.824;20.288;2023-04-15T04:32:43;103293.34;;;-1.10;52.41
13476;BME280;6810;63.824;20.288;2023-04-15T04:35:49;103295.94;;;-1.10;52.84
13476;BME280;6810;63.824;20.288;2023-04-15T04:38:56;103296.72;;;-1.14;52.12
13476;BME280;6810;63.824;20.288;2023-04-15T04:42:03;103313.59;;;-1.04;52.82
13476;BME280;6810;63.824;20.288;2023-04-15T04:45:10;103324.91;;;-1.04;52.94
13476;BME280;6810;63.824;20.288;2023-04-15T04:48:20;103322.31;;;-1.04;52.56
13476;BME280;6810;63.824;20.288;2023-04-15T04:51:27;103296.47;;;-1.21;52.82
13476;BME280;6810;63.824;20.288;2023-04-15T04:54:34;103325.81;;;-1.03;53.09
13476;BME280;6810;63.824;20.288;2023-04-15T04:57:41;103326.72;;;-1.03;52.81
13476;BME280;6810;63.824;20.288;2023-04-15T05:00:48;103331.94;;;-1.03;52.58
13476;BME280;6810;63.824;20.288;2023-04-15T05:03:55;103333.72;;;-1.02;53.27
13476;BME280;6810;63.824;20.288;2023-04-15T05:07:01;103328.47;;;-1.02;53.32
13476;BME280;6810;63.824;20.288;2023-04-15T05:10:09;103332.91;;;-0.99;52.35
13476;BME280;6810;63.824;20.288;2023-04-15T05:13:15;103319.00;;;-0.98;53.31
13476;BME280;6810;63.824;20.288;2023-04-15T05:16:22;103300.47;;;-1.06;52.65
13476;BME280;6810;63.824;20.288;2023-04-15T05:19:30;103306.75;;;-0.99;52.83
13476;BME280;6810;63.824;20.288;2023-04-15T05:22:37;103282.91;;;-1.08;52.84
13476;BME280;6810;63.824;20.288;2023-04-15T05:25:44;103300.88;;;-0.92;53.23
13476;BME280;6810;63.824;20.288;2023-04-15T05:28:50;103299.97;;;-0.93;53.42
13476;BME280;6810;63.824;20.288;2023-04-15T05:31:57;103301.19;;;-0.82;52.52
13476;BME280;6810;63.824;20.288;2023-04-15T05:35:05;103307.38;;;-0.80;52.45
13476;BME280;6810;63.824;20.288;2023-04-15T05:38:12;103304.88;;;-0.75;53.09
13476;BME280;6810;63.824;20.288;2023-04-15T05:41:18;103289.09;;;-0.78;52.70
13476;BME280;6810;63.824;20.288;2023-04-15T05:44:25;103263.63;;;-0.82;52.66
13476;BME280;6810;63.824;20.288;2023-04-15T05:47:32;103290.16;;;-0.70;53.04
13476;BME280;6810;63.824;20.288;2023-04-15T05:50:40;103242.44;;;-0.91;52.95
13476;BME280;6810;63.824;20.288;2023-04-15T05:53:48;103268.22;;;-0.75;53.41
13476;BME280;6810;63.824;20.288;2023-04-15T05:56:54;103295.94;;;-0.52;53.21
13476;BME280;6810;63.824;20.288;2023-04-15T06:00:01;103292.56;;;-0.48;53.38
13476;BME280;6810;63.824;20.288;2023-04-15T06:03:09;103288.19;;;-0.49;52.61
13476;BME280;6810;63.824;20.288;2023-04-15T06:06:16;103305.00;;;-0.40;53.54
13476;BME280;6810;63.824;20.288;2023-04-15T06:09:23;103300.84;;;-0.33;53.54
13476;BME280;6810;63.824;20.288;2023-04-15T06:12:29;103293.91;;;-0.31;53.55
13476;BME280;6810;63.824;20.288;2023-04-15T06:15:36;103289.66;;;-0.28;53.61
13476;BME280;6810;63.824;20.288;2023-04-15T06:18:43;103180.72;;;-0.83;53.54
13476;BME280;6810;63.824;20.288;2023-04-15T06:21:50;103273.97;;;-0.26;52.95
13476;BME280;6810;63.824;20.288;2023-04-15T06:24:57;103294.47;;;-0.10;53.05
13476;BME280;6810;63.824;20.288;2023-04-15T06:28:04;103280.41;;;-0.14;53.07
13476;BME280;6810;63.824;20.288;2023-04-15T06:31:11;103293.94;;;0.02;52.92
13476;BME280;6810;63.824;20.288;2023-04-15T06:34:17;103286.19;;;0.06;53.19
13476;BME280;6810;63.824;20.288;2023-04-15T06:37:24;103283.72;;;0.12;53.48
13476;BME280;6810;63.824;20.288;2023-04-15T06:40:31;103249.22;;;-0.03;52.75
13476;BME280;6810;63.824;20.288;2023-04-15T06:43:38;103262.84;;;0.17;53.24
13476;BME280;6810;63.824;20.288;2023-04-15T06:46:45;103283.28;;;0.30;52.68
13476;BME280;6810;63.824;20.288;2023-04-15T06:49:52;103286.06;;;0.36;52.75
13476;BME280;6810;63.824;20.288;2023-04-15T06:52:59;103280.75;;;0.34;52.85
13476;BME280;6810;63.824;20.288;2023-04-15T06:56:07;103287.19;;;0.47;53.21
13476;BME280;6810;63.824;20.288;2023-04-15T06:59:14;103260.91;;;0.44;52.90
13476;BME280;6810;63.824;20.288;2023-04-15T07:02:21;103275.16;;;0.55;53.16
13476;BME280;6810;63.824;20.288;2023-04-15T07:05:28;103279.75;;;0.65;53.03
13476;BME280;6810;63.824;20.288;2023-04-15T07:08:35;103236.47;;;0.46;52.79
13476;BME280;6810;63.824;20.288;2023-04-15T07:11:42;103282.66;;;0.77;52.98
13476;BME280;6810;63.824;20.288;2023-04-15T07:14:49;103281.06;;;0.83;52.84
13476;BME280;6810;63.824;20.288;2023-04-15T07:17:56;103278.56;;;0.89;52.99
13476;BME280;6810;63.824;20.288;2023-04-15T07:21:03;103283.13;;;0.96;52.80
13476;BME280;6810;63.824;20.288;2023-04-15T07:24:10;103277.13;;;1.02;52.65
13476;BME280;6810;63.824;20.288;2023-04-15T07:27:17;103272.81;;;1.05;52.63
13476;BME280;6810;63.824;20.288;2023-04-15T07:30:23;103274.75;;;1.14;52.83
13476;BME280;6810;63.824;20.288;2023-04-15T07:33:31;103266.81;;;1.11;52.66
13476;BME280;6810;63.824;20.288;2023-04-15T07:36:37;103281.19;;;1.28;52.01
13476;BME280;6810;63.824;20.288;2023-04-15T07:39:44;103283.91;;;1.32;52.51
13476;BME280;6810;63.824;20.288;2023-04-15T07:42:51;103254.81;;;1.23;52.44
13476;BME280;6810;63.824;20.288;2023-04-15T07:45:58;103285.06;;;1.46;52.16
13476;BME280;6810;63.824;20.288;2023-04-15T07:49:05;103278.13;;;1.51;52.34
13476;BME280;6810;63.824;20.288;2023-04-15T07:52:12;103272.88;;;1.51;52.45
13476;BME280;6810;63.824;20.288;2023-04-15T07:55:19;103273.97;;;1.61;51.97
13476;BME280;6810;63.824;20.288;2023-04-15T07:58:26;103289.09;;;1.72;51.88
13476;BME280;6810;63.824;20.288;2023-04-15T08:01:32;103243.13;;;1.51;51.82
13476;BME280;6810;63.824;20.288;2023-04-15T08:04:39;103300.69;;;1.85;52.09
13476;BME280;6810;63.824;20.288;2023-04-15T08:07:46;103285.09;;;1.93;51.84
13476;BME280;6810;63.824;20.288;2023-04-15T08:10:53;103287.88;;;2.02;51.55
13476;BME280;6810;63.824;20.288;2023-04-15T08:14:00;103266.75;;;1.96;51.33
13476;BME280;6810;63.824;20.288;2023-04-15T08:17:07;103267.88;;;2.11;51.08
13476;BME280;6810;63.824;20.288;2023-04-15T08:20:14;103282.13;;;2.24;51.48
13476;BME280;6810;63.824;20.288;2023-04-15T08:23:21;103270.69;;;2.23;51.50
13476;BME280;6810;63.824;20.288;2023-04-15T08:26:27;103289.41;;;2.38;51.23
13476;BME280;6810;63.824;20.288;2023-04-15T08:29:34;103288.63;;;2.45;51.72
13476;BME280;6810;63.824;20.288;2023-04-15T08:32:44;103273.84;;;2.53;50.67
13476;BME280;6810;63.824;20.288;2023-04-15T08:35:51;103282.75;;;2.61;50.59
13476;BME280;6810;63.824;20.288;2023-04-15T08:38:58;103281.97;;;2.68;50.85
13476;BME280;6810;63.824;20.288;2023-04-15T08:42:10;103263.50;;;2.65;50.28
13476;BME280;6810;63.824;20.288;2023-04-15T08:45:18;103250.38;;;2.68;50.78
13476;BME280;6810;63.824;20.288;2023-04-15T08:48:31;103210.66;;;2.53;50.87
13476;BME280;6810;63.824;20.288;2023-04-15T08:51:41;103281.59;;;3.01;50.98
13476;BME280;6810;63.824;20.288;2023-04-15T08:54:48;103270.25;;;3.08;50.94
13476;BME280;6810;63.824;20.288;2023-04-15T08:57:56;103230.53;;;2.93;50.97
13476;BME280;6810;63.824;20.288;2023-04-15T09:01:02;103266.97;;;3.24;50.69
13476;BME280;6810;63.824;20.288;2023-04-15T09:04:10;103272.38;;;3.36;49.19
13476;BME280;6810;63.824;20.288;2023-04-15T09:07:17;103247.72;;;3.32;49.75
13476;BME280;6810;63.824;20.288;2023-04-15T09:10:23;103270.00;;;3.57;50.26
13476;BME280;6810;63.824;20.288;2023-04-15T09:13:30;103271.00;;;3.70;49.03
13476;BME280;6810;63.824;20.288;2023-04-15T09:20:10;103276.56;;;3.97;48.60
13476;BME280;6810;63.824;20.288;2023-04-15T09:23:18;103213.06;;;3.77;49.31
13476;BME280;6810;63.824;20.288;2023-04-15T09:26:37;103268.91;;;4.25;48.87
13476;BME280;6810;63.824;20.288;2023-04-15T09:29:49;103261.09;;;4.42;48.77
13476;BME280;6810;63.824;20.288;2023-04-15T09:32:57;103265.66;;;4.59;48.85
13476;BME280;6810;63.824;20.288;2023-04-15T09:36:04;103233.97;;;4.62;48.94
13476;BME280;6810;63.824;20.288;2023-04-15T09:39:11;103247.38;;;4.94;48.24
13476;BME280;6810;63.824;20.288;2023-04-15T09:42:18;103239.50;;;5.07;48.70
13476;BME280;6810;63.824;20.288;2023-04-15T09:45:32;103247.56;;;5.31;47.54
13476;BME280;6810;63.824;20.288;2023-04-15T09:48:40;103231.72;;;5.42;47.40
13476;BME280;6810;63.824;20.288;2023-04-15T09:51:46;103238.81;;;5.64;47.11
13476;BME280;6810;63.824;20.288;2023-04-15T09:54:54;103222.97;;;5.76;47.21
13476;BME280;6810;63.824;20.288;2023-04-15T09:58:17;103224.81;;;5.95;46.55
13476;BME280;6810;63.824;20.288;2023-04-15T10:01:24;103245.13;;;6.26;45.69
13476;BME280;6810;63.824;20.288;2023-04-15T10:04:34;103222.13;;;6.39;45.69
13476;BME280;6810;63.824;20.288;2023-04-15T10:07:42;103232.75;;;6.60;45.47
13476;BME280;6810;63.824;20.288;2023-04-15T10:10:49;103227.38;;;6.79;45.46
13476;BME280;6810;63.824;20.288;2023-04-15T10:13:57;103202.63;;;6.83;45.05
13476;BME280;6810;63.824;20.288;2023-04-15T10:17:04;103218.47;;;7.11;44.39
13476;BME280;6810;63.824;20.288;2023-04-15T10:20:12;103221.84;;;7.34;44.23
13476;BME280;6810;63.824;20.288;2023-04-15T10:23:21;103215.59;;;7.48;43.94
13476;BME280;6810;63.824;20.288;2023-04-15T10:26:29;103185.53;;;7.48;43.55
13476;BME280;6810;63.824;20.288;2023-04-15T10:29:36;103218.03;;;7.83;43.36
13476;BME280;6810;63.824;20.288;2023-04-15T10:32:44;103204.69;;;7.92;42.97
13476;BME280;6810;63.824;20.288;2023-04-15T10:35:53;103221.31;;;8.15;42.84
13476;BME280;6810;63.824;20.288;2023-04-15T10:39:01;103216.81;;;8.30;42.66
13476;BME280;6810;63.824;20.288;2023-04-15T10:42:09;103212.22;;;8.47;42.36
13476;BME280;6810;63.824;20.288;2023-04-15T10:45:17;103202.34;;;8.61;41.64
13476;BME280;6810;63.824;20.288;2023-04-15T10:48:24;103213.63;;;8.83;41.92
13476;BME280;6810;63.824;20.288;2023-04-15T10:51:31;103115.66;;;8.44;41.90
13476;BME280;6810;63.824;20.288;2023-04-15T10:54:38;103166.53;;;8.90;41.73
13476;BME280;6810;63.824;20.288;2023-04-15T10:57:45;103207.81;;;9.21;41.51
13476;BME280;6810;63.824;20.288;2023-04-15T11:00:52;103191.75;;;9.28;40.59
13476;BME280;6810;63.824;20.288;2023-04-15T11:03:59;103205.69;;;9.48;40.98
13476;BME280;6810;63.824;20.288;2023-04-15T11:07:06;103208.91;;;9.71;40.06
13476;BME280;6810;63.824;20.288;2023-04-15T11:13:24;103211.00;;;10.06;40.24
13476;BME280;6810;63.824;20.288;2023-04-15T11:16:41;103200.13;;;10.21;39.41
13476;BME280;6810;63.824;20.288;2023-04-15T11:19:48;103172.59;;;10.20;39.32
13476;BME280;6810;63.824;20.288;2023-04-15T11:22:55;103206.63;;;10.55;38.86
13476;BME280;6810;63.824;20.288;2023-04-15T11:26:04;103202.81;;;10.70;38.40
13476;BME280;6810;63.824;20.288;2023-04-15T11:29:16;103198.94;;;10.84;37.66
13476;BME280;6810;63.824;20.288;2023-04-15T11:32:23;103185.59;;;10.84;37.44
13476;BME280;6810;63.824;20.288;2023-04-15T11:35:30;103174.72;;;10.95;37.42
13476;BME280;6810;63.824;20.288;2023-04-15T11:38:41;103167.38;;;11.06;37.75
13476;BME280;6810;63.824;20.288;2023-04-15T11:41:48;103200.59;;;11.34;37.75
13476;BME280;6810;63.824;20.288;2023-04-15T11:45:06;103191.53;;;11.39;37.03
13476;BME280;6810;63.824;20.288;2023-04-15T11:48:13;103109.47;;;11.09;30.08
13476;BME280;6810;63.824;20.288;2023-04-15T11:51:20;103198.84;;;11.71;29.19
13476;BME280;6810;63.824;20.288;2023-04-15T11:54:07;103195.84;;;11.84;30.99
13476;BME280;6810;63.824;20.288;2023-04-15T11:56:54;103193.84;;;11.94;31.43
13476;BME280;6810;63.824;20.288;2023-04-15T11:59:42;103186.63;;;11.97;32.40
13476;BME280;6810;63.824;20.288;2023-04-15T12:02:31;103188.19;;;12.06;33.03
13476;BME280;6810;63.824;20.288;2023-04-15T12:05:18;103190.75;;;12.10;32.30
13476;BME280;6810;63.824;20.288;2023-04-15T12:08:05;103192.44;;;12.14;32.02
13476;BME280;6810;63.824;20.288;2023-04-15T12:10:58;103169.56;;;12.03;32.63
13476;BME280;6810;63.824;20.288;2023-04-15T12:13:47;103186.25;;;12.12;31.85
13476;BME280;6810;63.824;20.288;2023-04-15T12:16:36;103192.59;;;12.08;32.67
13476;BME280;6810;63.824;20.288;2023-04-15T12:19:57;103194.50;;;12.03;31.61
13476;BME280;6810;63.824;20.288;2023-04-15T12:22:36;103173.56;;;11.85;32.20
13476;BME280;6810;63.824;20.288;2023-04-15T12:25:33;103193.75;;;11.97;32.70
13476;BME280;6810;63.824;20.288;2023-04-15T12:28:20;103185.91;;;11.91;32.71
13476;BME280;6810;63.824;20.288;2023-04-15T12:31:08;103193.81;;;11.95;31.71
13476;BME280;6810;63.824;20.288;2023-04-15T12:33:56;103184.25;;;11.85;32.03
13476;BME280;6810;63.824;20.288;2023-04-15T12:36:43;103194.06;;;11.85;32.29
13476;BME280;6810;63.824;20.288;2023-04-15T12:39:33;103187.94;;;11.80;31.51
13476;BME280;6810;63.824;20.288;2023-04-15T12:42:21;103185.31;;;11.78;32.45
13476;BME280;6810;63.824;20.288;2023-04-15T12:45:08;103191.47;;;11.82;32.37
13476;BME280;6810;63.824;20.288;2023-04-15T12:47:55;103177.41;;;11.74;31.33
13476;BME280;6810;63.824;20.288;2023-04-15T12:50:42;103195.00;;;11.84;32.03
13476;BME280;6810;63.824;20.288;2023-04-15T12:53:31;103189.84;;;11.76;31.71
13476;BME280;6810;63.824;20.288;2023-04-15T12:56:18;103195.25;;;11.73;31.85
13476;BME280;6810;63.824;20.288;2023-04-15T12:59:05;103193.47;;;11.72;31.96
13476;BME280;6810;63.824;20.288;2023-04-15T13:01:53;103182.00;;;11.69;31.28
13476;BME280;6810;63.824;20.288;2023-04-15T13:04:40;103188.13;;;11.72;31.53
13476;BME280;6810;63.824;20.288;2023-04-15T13:07:27;103183.59;;;11.76;31.27
13476;BME280;6810;63.824;20.288;2023-04-15T13:10:14;103180.84;;;11.79;31.54
13476;BME280;6810;63.824;20.288;2023-04-15T13:13:01;103182.56;;;11.81;31.83
13476;BME280;6810;63.824;20.288;2023-04-15T13:15:48;103176.31;;;11.82;31.56
13476;BME280;6810;63.824;20.288;2023-04-15T13:18:35;103185.19;;;11.83;31.80
13476;BME280;6810;63.824;20.288;2023-04-15T13:21:22;103179.00;;;11.82;31.38
13476;BME280;6810;63.824;20.288;2023-04-15T13:24:09;103180.00;;;11.77;31.72
13476;BME280;6810;63.824;20.288;2023-04-15T13:26:56;103171.34;;;11.67;31.33
13476;BME280;6810;63.824;20.288;2023-04-15T13:29:43;103165.22;;;11.62;31.65
13476;BME280;6810;63.824;20.288;2023-04-15T13:32:30;103170.56;;;11.62;31.53
13476;BME280;6810;63.824;20.288;2023-04-15T13:35:17;103117.91;;;11.29;30.99
13476;BME280;6810;63.824;20.288;2023-04-15T13:38:04;103162.69;;;11.55;31.35
13476;BME280;6810;63.824;20.288;2023-04-15T13:40:51;103174.34;;;11.51;32.01
13476;BME280;6810;63.824;20.288;2023-04-15T13:43:38;103162.97;;;11.43;31.29
13476;BME280;6810;63.824;20.288;2023-04-15T13:46:25;103160.41;;;11.38;31.35
13476;BME280;6810;63.824;20.288;2023-04-15T13:49:12;103158.69;;;11.36;31.24
13476;BME280;6810;63.824;20.288;2023-04-15T13:51:59;103066.56;;;10.79;31.80
13476;BME280;6810;63.824;20.288;2023-04-15T13:54:46;103142.97;;;11.22;31.05
13476;BME280;6810;63.824;20.288;2023-04-15T13:57:46;103143.16;;;11.13;31.24
13476;BME280;6810;63.824;20.288;2023-04-15T14:00:33;103141.63;;;11.03;31.64
13476;BME280;6810;63.824;20.288;2023-04-15T14:03:20;103143.59;;;10.94;31.42
13476;BME280;6810;63.824;20.288;2023-04-15T14:06:08;103142.13;;;10.79;31.10
13476;BME280;6810;63.824;20.288;2023-04-15T14:08:55;103132.69;;;10.63;30.99
13476;BME280;6810;63.824;20.288;2023-04-15T14:11:41;103147.78;;;10.63;31.77
13476;BME280;6810;63.824;20.288;2023-04-15T14:14:29;103157.72;;;10.54;31.15
13476;BME280;6810;63.824;20.288;2023-04-15T14:17:16;103148.13;;;10.46;31.00
13476;BME280;6810;63.824;20.288;2023-04-15T14:20:06;103120.19;;;10.19;30.87
13476;BME280;6810;63.824;20.288;2023-04-15T14:22:53;103148.41;;;10.31;31.44
13476;BME280;6810;63.824;20.288;2023-04-15T14:25:40;103141.41;;;10.24;31.18
13476;BME280;6810;63.824;20.288;2023-04-15T14:28:28;103143.38;;;10.16;30.95
13476;BME280;6810;63.824;20.288;2023-04-15T14:31:14;103145.25;;;10.09;31.19
13476;BME280;6810;63.824;20.288;2023-04-15T14:34:02;103147.19;;;9.98;30.94
13476;BME280;6810;63.824;20.288;2023-04-15T14:36:50;103091.13;;;9.53;31.30
13476;BME280;6810;63.824;20.288;2023-04-15T14:39:37;103152.03;;;9.72;31.67
13476;BME280;6810;63.824;20.288;2023-04-15T14:42:24;103146.03;;;9.60;31.49
13476;BME280;6810;63.824;20.288;2023-04-15T14:45:11;103156.00;;;9.49;31.98
13476;BME280;6810;63.824;20.288;2023-04-15T14:47:58;103154.28;;;9.42;31.85
13476;BME280;6810;63.824;20.288;2023-04-15T14:50:45;103155.31;;;9.35;31.81
13476;BME280;6810;63.824;20.288;2023-04-15T14:53:32;103148.31;;;9.26;31.99
13476;BME280;6810;63.824;20.288;2023-04-15T14:56:20;103153.75;;;9.17;31.62
13476;BME280;6810;63.824;20.288;2023-04-15T14:59:06;103151.19;;;9.10;31.54
13476;BME280;6810;63.824;20.288;2023-04-15T15:01:53;103153.91;;;9.05;32.30
13476;BME280;6810;63.824;20.288;2023-04-15T15:05:01;103146.03;;;8.99;31.68
13476;BME280;6810;63.824;20.288;2023-04-15T15:07:48;103110.00;;;8.75;31.89